createdAt,value
2023-04-10T00:02:15.665Z,99.90
2023-04-10T00:04:43.780Z,99.90
2023-04-10T00:07:14.130Z,99.90
2023-04-10T00:09:42.102Z,99.90
2023-04-10T00:12:11.143Z,99.90
2023-04-10T00:14:39.231Z,99.90
2023-04-10T00:17:07.850Z,99.90
2023-04-10T00:19:36.242Z,99.90
2023-04-10T00:22:04.390Z,99.90
2023-04-10T00:24:33.681Z,99.90
2023-04-10T00:27:01.726Z,99.90
2023-04-10T00:29:29.819Z,99.90
2023-04-10T00:31:57.876Z,99.90
2023-04-10T00:34:26.156Z,99.90
2023-04-10T00:36:54.161Z,99.90
2023-04-10T00:39:22.047Z,99.90
2023-04-10T00:41:51.297Z,99.90
2023-04-10T00:44:19.203Z,99.90
2023-04-10T00:46:47.186Z,99.90
2023-04-10T00:49:15.423Z,99.90
2023-04-10T00:51:43.603Z,99.90
2023-04-10T00:54:12.805Z,99.90
2023-04-10T00:56:41.489Z,99.90
2023-04-10T00:59:11.416Z,99.90
2023-04-10T01:01:39.350Z,99.90
2023-04-10T01:04:08.104Z,99.90
2023-04-10T01:06:51.270Z,99.90
2023-04-10T01:09:36.485Z,99.90
2023-04-10T01:12:16.833Z,99.90
2023-04-10T01:14:54.148Z,99.90
2023-04-10T01:17:36.398Z,99.90
2023-04-10T01:20:08.557Z,99.90
2023-04-10T01:22:39.223Z,99.90
2023-04-10T01:25:24.932Z,99.90
2023-04-10T01:28:08.349Z,99.90
2023-04-10T01:30:38.869Z,99.90
2023-04-10T01:33:08.262Z,99.90
2023-04-10T01:35:37.401Z,99.90
2023-04-10T01:38:07.769Z,99.90
2023-04-10T01:40:40.478Z,99.90
2023-04-10T01:43:11.370Z,99.90
2023-04-10T01:45:43.418Z,99.90
2023-04-10T01:48:11.842Z,99.90
2023-04-10T01:50:42.371Z,99.90
2023-04-10T01:53:11.217Z,99.90
2023-04-10T01:55:40.441Z,99.90
2023-04-10T01:58:08.857Z,99.90
2023-04-10T02:00:41.659Z,99.90
2023-04-10T02:03:09.861Z,99.90
2023-04-10T02:05:47.980Z,99.90
2023-04-10T02:08:24.654Z,99.90
2023-04-10T02:10:59.373Z,99.90
2023-04-10T02:13:29.449Z,99.90
2023-04-10T02:16:04.040Z,99.90
2023-04-10T02:18:34.791Z,99.90
2023-04-10T02:21:03.744Z,99.90
2023-04-10T02:23:31.740Z,99.90
2023-04-10T02:25:59.763Z,99.90
2023-04-10T02:28:27.816Z,99.90
2023-04-10T02:30:55.822Z,99.90
2023-04-10T02:33:25.274Z,99.90
2023-04-10T02:35:53.272Z,99.90
2023-04-10T02:38:21.224Z,99.90
2023-04-10T02:40:50.281Z,99.90
2023-04-10T02:43:18.753Z,99.90
2023-04-10T02:45:46.749Z,99.90
2023-04-10T02:48:14.744Z,99.90
2023-04-10T02:50:46.262Z,99.90
2023-04-10T02:53:15.038Z,99.90
2023-04-10T02:55:42.913Z,99.90
2023-04-10T02:58:13.127Z,99.90
2023-04-10T03:00:42.364Z,99.90
2023-04-10T03:03:10.368Z,99.90
2023-04-10T03:05:38.333Z,99.90
2023-04-10T03:08:07.763Z,99.90
2023-04-10T03:10:35.890Z,99.90
2023-04-10T03:13:03.785Z,99.90
2023-04-10T03:15:32.296Z,99.90
2023-04-10T03:18:00.458Z,99.90
2023-04-10T03:20:28.484Z,99.90
2023-04-10T03:22:56.714Z,99.90
2023-04-10T03:25:26.452Z,99.90
2023-04-10T03:27:54.342Z,99.90
2023-04-10T03:30:22.362Z,99.90
2023-04-10T03:32:50.396Z,99.90
2023-04-10T03:35:18.335Z,99.90
2023-04-10T03:37:46.553Z,99.90
2023-04-10T03:40:14.703Z,99.90
2023-04-10T03:42:43.949Z,99.90
2023-04-10T03:45:13.168Z,99.90
2023-04-10T03:47:41.191Z,99.90
2023-04-10T03:50:09.732Z,99.90
2023-04-10T03:52:37.632Z,99.90
2023-04-10T03:55:06.491Z,99.90
2023-04-10T03:57:34.333Z,99.90
2023-04-10T04:00:18.142Z,99.90
2023-04-10T04:03:37.649Z,99.90
2023-04-10T04:06:15.117Z,99.90
2023-04-10T04:11:39.037Z,99.90
2023-04-10T04:14:14.394Z,99.90
2023-04-10T04:16:51.246Z,99.90
2023-04-10T04:19:26.729Z,99.90
2023-04-10T04:22:03.330Z,99.90
2023-04-10T04:24:36.473Z,99.90
2023-04-10T04:27:09.722Z,99.90
2023-04-10T04:29:44.809Z,99.90
2023-04-10T04:32:21.229Z,99.90
2023-04-10T04:34:58.510Z,99.90
2023-04-10T04:37:34.399Z,99.90
2023-04-10T04:40:08.512Z,99.90
2023-04-10T04:42:44.102Z,99.90
2023-04-10T04:45:19.132Z,99.90
2023-04-10T04:47:59.868Z,99.90
2023-04-10T04:50:35.490Z,99.90
2023-04-10T04:53:11.695Z,99.90
2023-04-10T04:55:40.600Z,99.90
2023-04-10T04:58:15.099Z,99.90
2023-04-10T05:00:52.879Z,99.90
2023-04-10T05:03:26.725Z,99.90
2023-04-10T05:06:01.816Z,99.90
2023-04-10T05:08:37.447Z,99.90
2023-04-10T05:11:07.075Z,99.90
2023-04-10T05:16:28.075Z,99.90
2023-04-10T05:19:24.968Z,99.90
2023-04-10T05:22:29.761Z,99.90
2023-04-10T05:25:16.584Z,99.90
2023-04-10T05:27:55.626Z,99.90
2023-04-10T05:30:49.426Z,99.90
2023-04-10T05:33:42.225Z,99.90
2023-04-10T05:36:29.143Z,99.90
2023-04-10T05:39:10.616Z,99.90
2023-04-10T05:41:53.056Z,99.90
2023-04-10T05:44:44.855Z,99.90
2023-04-10T05:47:49.977Z,99.90
2023-04-10T05:50:45.993Z,99.90
2023-04-10T05:53:55.468Z,99.90
2023-04-10T05:56:54.711Z,99.90
2023-04-10T05:59:39.414Z,99.90
2023-04-10T06:02:23.293Z,99.90
2023-04-10T06:05:03.727Z,99.90
2023-04-10T06:07:33.391Z,99.90
2023-04-10T06:10:12.014Z,99.90
2023-04-10T06:12:48.261Z,99.90
2023-04-10T06:15:25.471Z,99.90
2023-04-10T06:17:58.524Z,99.90
2023-04-10T06:20:30.864Z,99.90
2023-04-10T06:23:12.011Z,99.90
2023-04-10T06:25:41.789Z,99.90
2023-04-10T06:28:10.133Z,99.90
2023-04-10T06:30:38.282Z,99.90
2023-04-10T06:33:06.550Z,99.90
2023-04-10T06:35:35.183Z,99.90
2023-04-10T06:38:06.426Z,99.90
2023-04-10T06:40:36.641Z,99.90
2023-04-10T06:43:12.075Z,99.90
2023-04-10T06:45:43.299Z,99.90
2023-04-10T06:48:12.172Z,99.90
2023-04-10T06:50:42.441Z,99.90
2023-04-10T06:53:11.243Z,99.90
2023-04-10T06:55:42.304Z,99.90
2023-04-10T06:58:17.756Z,99.90
2023-04-10T07:00:46.671Z,99.90
2023-04-10T07:03:15.515Z,99.90
2023-04-10T07:05:52.790Z,99.90
2023-04-10T07:08:24.057Z,99.90
2023-04-10T07:11:03.117Z,99.90
2023-04-10T07:13:33.528Z,99.90
2023-04-10T07:16:09.177Z,99.90
2023-04-10T07:18:42.813Z,99.90
2023-04-10T07:21:16.869Z,99.90
2023-04-10T07:23:59.187Z,99.90
2023-04-10T07:26:40.882Z,99.90
2023-04-10T07:29:13.259Z,99.90
2023-04-10T07:31:49.482Z,99.90
2023-04-10T07:34:24.095Z,99.90
2023-04-10T07:37:01.228Z,99.90
2023-04-10T07:39:29.452Z,99.90
2023-04-10T07:41:57.461Z,99.90
2023-04-10T07:44:27.430Z,99.90
2023-04-10T07:46:55.976Z,99.90
2023-04-10T07:49:24.656Z,99.90
2023-04-10T07:51:53.130Z,99.90
2023-04-10T07:54:21.306Z,99.90
2023-04-10T07:56:49.443Z,99.90
2023-04-10T07:59:17.556Z,99.90
2023-04-10T08:01:47.054Z,99.90
2023-04-10T08:04:15.381Z,99.90
2023-04-10T08:06:43.602Z,99.90
2023-04-10T08:09:11.693Z,99.90
2023-04-10T08:11:39.746Z,99.90
2023-04-10T08:14:07.803Z,99.90
2023-04-10T08:16:38.588Z,99.90
2023-04-10T08:19:08.104Z,99.90
2023-04-10T08:21:36.362Z,99.90
2023-04-10T08:24:05.278Z,99.90
2023-04-10T08:26:33.312Z,99.90
2023-04-10T08:29:01.776Z,99.90
2023-04-10T08:31:30.486Z,99.90
2023-04-10T08:33:59.356Z,99.90
2023-04-10T08:36:29.103Z,99.90
2023-04-10T08:38:57.180Z,99.90
2023-04-10T08:41:25.233Z,99.90
2023-04-10T08:43:53.569Z,99.90
2023-04-10T08:46:24.945Z,99.90
2023-04-10T08:48:59.894Z,99.90
2023-04-10T08:51:35.725Z,99.90
2023-04-10T08:54:07.901Z,99.90
2023-04-10T08:56:37.298Z,99.90
2023-04-10T08:59:05.657Z,99.90
2023-04-10T09:01:34.846Z,99.00
2023-04-10T09:04:03.008Z,99.90
2023-04-10T09:06:32.758Z,98.90
2023-04-10T09:12:04.059Z,99.90
2023-04-10T09:14:33.884Z,97.70
2023-04-10T09:17:16.793Z,98.50
2023-04-10T09:19:45.975Z,97.20
2023-04-10T09:22:16.271Z,97.70
2023-04-10T09:24:47.403Z,98.70
2023-04-10T09:27:30.843Z,94.90
2023-04-10T09:29:59.011Z,96.60
2023-04-10T09:32:41.773Z,95.70
2023-04-10T09:35:11.207Z,95.80
2023-04-10T09:37:42.268Z,93.80
2023-04-10T09:40:23.922Z,94.20
2023-04-10T09:42:52.106Z,94.10
2023-04-10T09:45:22.421Z,93.20
2023-04-10T09:48:11.474Z,93.30
2023-04-10T09:50:40.794Z,93.70
2023-04-10T09:53:11.427Z,95.30
2023-04-10T09:55:39.639Z,94.10
2023-04-10T09:58:08.098Z,94.50
2023-04-10T10:00:41.366Z,94.00
2023-04-10T10:03:11.807Z,93.60
2023-04-10T10:05:42.437Z,92.80
2023-04-10T10:08:13.880Z,94.70
2023-04-10T10:10:47.046Z,91.70
2023-04-10T10:13:18.993Z,93.50
2023-04-10T10:15:52.721Z,93.70
2023-04-10T10:18:28.377Z,92.30
2023-04-10T10:20:56.585Z,92.10
2023-04-10T10:23:27.064Z,93.50
2023-04-10T10:25:56.034Z,92.20
2023-04-10T10:28:25.489Z,90.00
2023-04-10T10:30:54.701Z,89.30
2023-04-10T10:33:24.230Z,91.10
2023-04-10T10:35:53.920Z,91.20
2023-04-10T10:38:22.506Z,93.20
2023-04-10T10:41:01.452Z,91.20
2023-04-10T10:43:38.842Z,90.90
2023-04-10T10:46:11.937Z,90.40
2023-04-10T10:48:39.866Z,90.00
2023-04-10T10:51:08.232Z,90.80
2023-04-10T10:53:38.896Z,88.60
2023-04-10T10:56:37.184Z,84.00
2023-04-10T10:59:05.278Z,88.20
2023-04-10T11:01:33.453Z,81.30
2023-04-10T11:04:02.315Z,86.30
2023-04-10T11:06:53.289Z,85.40
2023-04-10T11:09:46.399Z,81.10
2023-04-10T11:12:16.590Z,80.50
2023-04-10T11:14:46.183Z,86.20
2023-04-10T11:17:16.032Z,76.10
2023-04-10T11:20:00.993Z,78.50
2023-04-10T11:22:29.415Z,73.00
2023-04-10T11:25:03.078Z,71.80
2023-04-10T11:27:48.661Z,69.70
2023-04-10T11:30:30.473Z,63.60
2023-04-10T11:33:00.617Z,62.80
2023-04-10T11:35:31.334Z,58.90
2023-04-10T11:38:19.248Z,64.60
2023-04-10T11:41:02.635Z,65.70
2023-04-10T11:43:33.760Z,61.30
2023-04-10T11:46:07.725Z,58.40
2023-04-10T11:48:36.810Z,61.80
2023-04-10T11:51:09.153Z,60.20
2023-04-10T11:53:37.222Z,59.10
2023-04-10T11:56:07.420Z,58.50
2023-04-10T11:58:36.969Z,60.40
2023-04-10T12:01:05.913Z,62.10
2023-04-10T12:03:39.323Z,60.70
2023-04-10T12:06:12.265Z,59.00
2023-04-10T12:08:42.209Z,60.50
2023-04-10T12:11:12.993Z,61.10
2023-04-10T12:13:42.417Z,60.20
2023-04-10T12:16:11.933Z,56.00
2023-04-10T12:18:40.180Z,59.40
2023-04-10T12:21:08.981Z,57.30
2023-04-10T12:23:39.169Z,58.10
2023-04-10T12:26:10.392Z,58.50
2023-04-10T12:28:39.530Z,57.80
2023-04-10T12:31:09.959Z,57.10
2023-04-10T12:33:38.044Z,59.00
2023-04-10T12:36:06.449Z,62.60
2023-04-10T12:38:42.302Z,58.40
2023-04-10T12:41:11.302Z,62.10
2023-04-10T12:43:40.663Z,57.60
2023-04-10T12:46:11.455Z,53.60
2023-04-10T12:48:39.501Z,56.30
2023-04-10T12:51:08.042Z,51.90
2023-04-10T12:53:44.853Z,53.20
2023-04-10T12:56:13.402Z,53.80
2023-04-10T12:58:42.627Z,56.70
2023-04-10T13:01:14.167Z,55.90
2023-04-10T13:03:42.286Z,59.40
2023-04-10T13:06:10.475Z,56.60
2023-04-10T13:08:38.542Z,57.30
2023-04-10T13:11:07.087Z,54.10
2023-04-10T13:13:34.990Z,56.10
2023-04-10T13:16:02.968Z,59.50
2023-04-10T13:18:32.385Z,58.90
2023-04-10T13:21:00.420Z,58.70
2023-04-10T13:23:28.419Z,56.70
2023-04-10T13:25:56.731Z,56.80
2023-04-10T13:28:24.636Z,56.20
2023-04-10T13:30:53.047Z,55.10
2023-04-10T13:33:20.984Z,56.60
2023-04-10T13:35:50.528Z,55.10
2023-04-10T13:38:20.027Z,55.80
2023-04-10T13:40:49.404Z,55.70
2023-04-10T13:43:17.300Z,55.10
2023-04-10T13:45:45.278Z,55.50
2023-04-10T13:48:13.252Z,57.70
2023-04-10T13:50:41.249Z,59.70
2023-04-10T13:53:10.663Z,60.70
2023-04-10T13:56:05.497Z,56.80
2023-04-10T13:58:43.353Z,59.00
2023-04-10T14:01:19.112Z,60.80
2023-04-10T14:03:47.919Z,57.70
2023-04-10T14:06:17.003Z,56.80
2023-04-10T14:08:51.734Z,59.40
2023-04-10T14:11:23.422Z,58.70
2023-04-10T14:13:58.694Z,59.80
2023-04-10T14:16:34.228Z,60.30
2023-04-10T14:19:06.946Z,60.00
2023-04-10T14:21:41.458Z,61.40
2023-04-10T14:24:11.878Z,60.80
2023-04-10T14:26:45.937Z,65.40
2023-04-10T14:29:20.188Z,61.40
2023-04-10T14:31:57.476Z,61.00
2023-04-10T14:34:30.487Z,60.30
2023-04-10T14:37:02.362Z,65.10
2023-04-10T14:39:34.311Z,63.40
2023-04-10T14:42:07.807Z,60.10
2023-04-10T14:44:45.736Z,63.60
2023-04-10T14:47:24.701Z,61.90
2023-04-10T14:50:06.143Z,61.80
2023-04-10T14:52:43.614Z,61.30
2023-04-10T14:55:20.622Z,61.20
2023-04-10T14:57:52.448Z,67.50
2023-04-10T15:00:28.830Z,68.10
2023-04-10T15:03:01.636Z,62.20
2023-04-10T15:05:36.511Z,66.10
2023-04-10T15:08:09.471Z,61.40
2023-04-10T15:10:46.650Z,62.80
2023-04-10T15:13:15.775Z,66.60
2023-04-10T15:15:46.185Z,63.80
2023-04-10T15:18:16.960Z,61.60
2023-04-10T15:20:46.133Z,62.50
2023-04-10T15:23:17.783Z,65.40
2023-04-10T15:25:47.878Z,64.80
2023-04-10T15:28:19.376Z,66.30
2023-04-10T15:30:51.385Z,63.40
2023-04-10T15:33:22.152Z,66.10
2023-04-10T15:35:51.341Z,65.20
2023-04-10T15:38:21.585Z,64.90
2023-04-10T15:40:58.517Z,67.10
2023-04-10T15:43:27.950Z,62.70
2023-04-10T15:46:00.490Z,64.00
2023-04-10T15:48:34.976Z,67.60
2023-04-10T15:51:05.864Z,66.20
2023-04-10T15:53:40.571Z,66.10
2023-04-10T15:56:13.638Z,70.00
2023-04-10T15:58:49.718Z,70.50
2023-04-10T16:01:26.871Z,69.80
2023-04-10T16:03:56.251Z,74.50
2023-04-10T16:06:28.658Z,72.40
2023-04-10T16:09:04.797Z,70.70
2023-04-10T16:11:39.589Z,65.00
2023-04-10T16:14:07.480Z,67.10
2023-04-10T16:16:35.492Z,64.70
2023-04-10T16:19:03.436Z,66.60
2023-04-10T16:21:31.419Z,69.70
2023-04-10T16:24:00.834Z,67.60
2023-04-10T16:26:28.839Z,68.30
2023-04-10T16:28:58.274Z,68.60
2023-04-10T16:31:26.295Z,66.20
2023-04-10T16:33:54.230Z,66.50
2023-04-10T16:36:22.192Z,67.70
2023-04-10T16:38:50.502Z,66.30
2023-04-10T16:41:20.412Z,66.10
2023-04-10T16:43:48.497Z,73.30
2023-04-10T16:46:18.008Z,72.00
2023-04-10T16:48:46.056Z,70.70
2023-04-10T16:51:16.705Z,73.50
2023-04-10T16:53:44.998Z,73.40
2023-04-10T16:56:13.010Z,69.30
2023-04-10T16:58:42.070Z,67.60
2023-04-10T17:01:25.073Z,69.60
2023-04-10T17:03:53.831Z,72.00
2023-04-10T17:06:22.267Z,70.30
2023-04-10T17:08:50.230Z,73.30
2023-04-10T17:11:18.114Z,72.20
2023-04-10T17:13:47.634Z,70.40
2023-04-10T17:16:15.793Z,72.80
2023-04-10T17:18:45.399Z,76.30
2023-04-10T17:21:13.815Z,75.20
2023-04-10T17:23:41.877Z,73.10
2023-04-10T17:26:14.487Z,74.10
2023-04-10T17:28:44.822Z,75.60
2023-04-10T17:31:15.363Z,74.40
2023-04-10T17:33:45.075Z,75.70
2023-04-10T17:36:13.906Z,74.10
2023-04-10T17:38:42.884Z,76.10
2023-04-10T17:41:11.396Z,77.70
2023-04-10T17:43:40.217Z,81.90
2023-04-10T17:46:08.322Z,78.80
2023-04-10T17:48:39.023Z,78.20
2023-04-10T17:51:09.130Z,77.80
2023-04-10T17:53:37.072Z,77.40
2023-04-10T17:56:05.482Z,78.30
2023-04-10T17:58:33.530Z,79.20
2023-04-10T18:01:03.650Z,78.20
2023-04-10T18:03:31.713Z,80.30
2023-04-10T18:06:00.040Z,78.80
2023-04-10T18:08:29.550Z,78.80
2023-04-10T18:10:58.236Z,77.70
2023-04-10T18:13:26.467Z,78.50
2023-04-10T18:15:54.463Z,79.10
2023-04-10T18:18:22.842Z,79.30
2023-04-10T18:20:51.138Z,80.90
2023-04-10T18:23:19.386Z,80.00
2023-04-10T18:25:57.136Z,82.70
2023-04-10T18:28:25.551Z,82.20
2023-04-10T18:30:56.957Z,84.40
2023-04-10T18:33:26.152Z,83.00
2023-04-10T18:35:57.302Z,81.80
2023-04-10T18:38:25.838Z,81.20
2023-04-10T18:40:58.606Z,82.70
2023-04-10T18:43:28.280Z,83.50
2023-04-10T18:45:56.768Z,85.00
2023-04-10T18:48:25.218Z,86.30
2023-04-10T18:50:54.276Z,84.90
2023-04-10T18:53:22.869Z,85.90
2023-04-10T18:55:52.447Z,85.10
2023-04-10T18:58:25.291Z,84.60
2023-04-10T19:00:57.130Z,84.90
2023-04-10T19:03:25.563Z,83.70
2023-04-10T19:05:53.848Z,84.00
2023-04-10T19:08:22.452Z,86.00
2023-04-10T19:10:50.784Z,86.70
2023-04-10T19:13:19.052Z,84.90
2023-04-10T19:15:50.153Z,85.20
2023-04-10T19:18:18.352Z,88.00
2023-04-10T19:20:52.603Z,88.10
2023-04-10T19:23:22.474Z,87.30
2023-04-10T19:25:53.640Z,86.90
2023-04-10T19:28:23.402Z,88.30
2023-04-10T19:30:56.627Z,85.10
2023-04-10T19:33:25.418Z,86.00
2023-04-10T19:35:53.926Z,87.20
2023-04-10T19:38:22.180Z,90.40
2023-04-10T19:40:50.474Z,88.00
2023-04-10T19:43:18.609Z,89.50
2023-04-10T19:45:46.690Z,91.10
2023-04-10T19:48:16.841Z,92.20
2023-04-10T19:50:45.026Z,91.40
2023-04-10T19:53:15.542Z,90.90
2023-04-10T19:55:45.611Z,90.70
2023-04-10T19:58:29.916Z,91.50
2023-04-10T20:01:05.610Z,92.20
2023-04-10T20:03:36.373Z,92.40
2023-04-10T20:06:07.473Z,91.80
2023-04-10T20:08:36.175Z,91.80
2023-04-10T20:11:06.057Z,93.90
2023-04-10T20:13:35.127Z,93.10
2023-04-10T20:16:03.757Z,92.20
2023-04-10T20:18:34.649Z,91.20
2023-04-10T20:21:02.932Z,91.70
2023-04-10T20:23:37.325Z,92.70
2023-04-10T20:26:05.678Z,91.80
2023-04-10T20:28:33.988Z,91.30
2023-04-10T20:31:02.430Z,92.50
2023-04-10T20:33:30.852Z,91.60
2023-04-10T20:36:00.816Z,91.10
2023-04-10T20:38:29.107Z,91.70
2023-04-10T20:40:57.253Z,91.80
2023-04-10T20:43:26.212Z,91.70
2023-04-10T20:45:55.039Z,92.90
2023-04-10T20:48:23.254Z,92.20
2023-04-10T20:50:51.945Z,91.80
2023-04-10T20:53:21.942Z,93.20
2023-04-10T20:55:54.057Z,92.70
2023-04-10T20:58:27.065Z,92.30
2023-04-10T21:01:02.302Z,92.80
2023-04-10T21:03:36.965Z,92.40
2023-04-10T21:06:16.940Z,92.20
2023-04-10T21:08:49.504Z,91.60
2023-04-10T21:11:19.845Z,92.60
2023-04-10T21:13:48.547Z,92.60
2023-04-10T21:16:17.276Z,92.70
2023-04-10T21:18:47.789Z,92.30
2023-04-10T21:21:18.423Z,92.20
2023-04-10T21:23:48.650Z,92.70
2023-04-10T21:26:17.246Z,93.70
2023-04-10T21:28:49.406Z,92.60
2023-04-10T21:31:18.584Z,92.20
2023-04-10T21:33:49.655Z,92.20
2023-04-10T21:36:20.141Z,93.20
2023-04-10T21:39:02.404Z,92.60
2023-04-10T21:41:31.282Z,92.90
2023-04-10T21:44:00.978Z,93.20
2023-04-10T21:46:29.762Z,93.20
2023-04-10T21:49:00.044Z,92.80
2023-04-10T21:51:29.445Z,93.90
2023-04-10T21:54:02.931Z,93.10
2023-04-10T21:56:32.010Z,93.30
2023-04-10T21:59:05.540Z,94.90
2023-04-10T22:01:45.136Z,93.60
2023-04-10T22:04:14.282Z,93.30
2023-04-10T22:07:08.495Z,93.20
2023-04-10T22:10:35.986Z,93.90
2023-04-10T22:13:23.376Z,93.50
2023-04-10T22:16:09.675Z,93.60
2023-04-10T22:18:43.807Z,94.20
2023-04-10T22:21:14.771Z,94.00
2023-04-10T22:23:47.716Z,94.30
2023-04-10T22:26:19.866Z,94.00
2023-04-10T22:28:51.601Z,94.10
2023-04-10T22:31:23.672Z,94.20
2023-04-10T22:33:54.880Z,94.40
2023-04-10T22:36:29.843Z,94.50
2023-04-10T22:39:01.295Z,95.60
2023-04-10T22:41:31.861Z,99.90
2023-04-10T22:44:00.188Z,99.90
2023-04-10T22:46:28.398Z,99.90
2023-04-10T22:48:57.487Z,99.90
2023-04-10T22:51:26.774Z,99.90
2023-04-10T22:53:54.900Z,99.90
2023-04-10T22:56:24.938Z,99.90
2023-04-10T22:58:54.488Z,99.90
2023-04-10T23:01:22.641Z,99.90
2023-04-10T23:03:53.645Z,99.90
2023-04-10T23:06:21.829Z,99.90
2023-04-10T23:08:49.748Z,99.90
2023-04-10T23:11:17.823Z,99.90
2023-04-10T23:13:45.837Z,99.90
2023-04-10T23:16:15.284Z,99.90
2023-04-10T23:18:43.182Z,99.90
2023-04-10T23:21:11.108Z,99.90
2023-04-10T23:23:39.018Z,99.90
2023-04-10T23:26:07.688Z,99.90
2023-04-10T23:28:35.679Z,99.90
2023-04-10T23:31:03.672Z,99.90
2023-04-10T23:33:33.006Z,99.90
2023-04-10T23:36:01.024Z,99.90
2023-04-10T23:38:29.118Z,99.90
2023-04-10T23:40:57.039Z,99.90
2023-04-10T23:43:24.981Z,99.90
2023-04-10T23:45:53.173Z,99.90
2023-04-10T23:48:21.201Z,99.90
2023-04-10T23:50:50.745Z,99.90
2023-04-10T23:53:18.893Z,99.90
2023-04-10T23:55:46.802Z,99.90
2023-04-10T23:58:14.673Z,99.90
